createdAt,value
2023-05-14T00:01:42.338Z,31.45
2023-05-14T00:04:17.849Z,31.70
2023-05-14T00:06:50.496Z,31.83
2023-05-14T00:09:20.773Z,32.05
2023-05-14T00:11:52.938Z,32.26
2023-05-14T00:14:35.716Z,32.32
2023-05-14T00:17:08.228Z,32.61
2023-05-14T00:19:59.857Z,32.44
2023-05-14T00:22:38.234Z,31.88
2023-05-14T00:25:09.460Z,31.20
2023-05-14T00:27:39.410Z,32.07
2023-05-14T00:30:15.848Z,31.68
2023-05-14T00:32:46.102Z,31.66
2023-05-14T00:35:25.102Z,31.12
2023-05-14T00:37:55.468Z,32.01
2023-05-14T00:40:29.855Z,31.39
2023-05-14T00:43:08.817Z,31.70
2023-05-14T00:45:44.976Z,32.07
2023-05-14T00:48:22.190Z,31.29
2023-05-14T00:50:52.577Z,32.01
2023-05-14T00:53:22.745Z,32.10
2023-05-14T00:55:52.980Z,30.69
2023-05-14T00:58:25.780Z,31.55
2023-05-14T01:00:55.703Z,31.04
2023-05-14T01:03:25.737Z,30.74
2023-05-14T01:06:27.299Z,30.54
2023-05-14T01:09:27.861Z,31.18
2023-05-14T01:12:02.223Z,30.71
2023-05-14T01:14:54.188Z,30.47
2023-05-14T01:17:31.134Z,30.16
2023-05-14T01:20:01.752Z,30.27
2023-05-14T01:22:51.522Z,30.80
2023-05-14T01:25:24.139Z,30.23
2023-05-14T01:28:14.503Z,30.33
2023-05-14T01:30:50.241Z,30.46
2023-05-14T01:33:21.011Z,30.27
2023-05-14T01:35:51.972Z,30.57
2023-05-14T01:38:27.374Z,30.13
2023-05-14T01:41:01.012Z,29.89
2023-05-14T01:43:36.679Z,30.06
2023-05-14T01:46:06.292Z,30.07
2023-05-14T01:48:45.649Z,30.06
2023-05-14T01:51:45.904Z,30.16
2023-05-14T01:54:15.404Z,30.41
2023-05-14T01:56:48.302Z,30.43
2023-05-14T01:59:21.573Z,30.20
2023-05-14T02:02:11.131Z,30.36
2023-05-14T02:04:54.768Z,30.51
2023-05-14T02:07:35.851Z,30.88
2023-05-14T02:10:26.239Z,30.09
2023-05-14T02:13:17.138Z,30.13
2023-05-14T02:16:02.556Z,30.01
2023-05-14T02:18:50.493Z,30.19
2023-05-14T02:22:00.042Z,30.27
2023-05-14T02:24:30.908Z,29.55
2023-05-14T02:27:03.817Z,29.36
2023-05-14T02:29:33.463Z,29.59
2023-05-14T02:32:03.320Z,29.03
2023-05-14T02:34:35.476Z,29.02
2023-05-14T02:37:05.855Z,29.26
2023-05-14T02:39:38.365Z,29.11
2023-05-14T02:42:12.496Z,28.55
2023-05-14T02:44:44.892Z,28.83
2023-05-14T02:47:15.986Z,28.22
2023-05-14T02:49:48.542Z,28.55
2023-05-14T02:52:24.658Z,28.19
2023-05-14T02:55:04.255Z,28.45
2023-05-14T02:57:35.335Z,28.36
2023-05-14T03:00:11.440Z,28.01
2023-05-14T03:02:42.311Z,28.15
2023-05-14T03:05:18.718Z,28.03
2023-05-14T03:07:57.415Z,27.90
2023-05-14T03:10:27.071Z,27.76
2023-05-14T03:12:57.092Z,27.84
2023-05-14T03:15:26.984Z,27.38
2023-05-14T03:17:59.016Z,27.49
2023-05-14T03:20:28.367Z,27.42
2023-05-14T03:22:57.495Z,27.29
2023-05-14T03:25:26.569Z,27.24
2023-05-14T03:27:55.669Z,27.14
2023-05-14T03:30:25.111Z,27.05
2023-05-14T03:32:54.673Z,26.79
2023-05-14T03:35:23.636Z,26.75
2023-05-14T03:37:53.862Z,26.65
2023-05-14T03:40:23.081Z,26.46
2023-05-14T03:42:53.190Z,26.38
2023-05-14T03:45:22.571Z,26.24
2023-05-14T03:47:51.625Z,26.08
2023-05-14T03:50:21.398Z,26.02
2023-05-14T03:52:50.440Z,25.80
2023-05-14T03:55:22.508Z,25.65
2023-05-14T03:57:51.550Z,25.71
2023-05-14T04:00:20.757Z,25.64
2023-05-14T04:02:49.917Z,25.54
2023-05-14T04:05:19.116Z,25.52
2023-05-14T04:07:48.061Z,25.62
2023-05-14T04:10:17.051Z,25.65
2023-05-14T04:12:46.175Z,25.58
2023-05-14T04:15:15.153Z,25.34
2023-05-14T04:17:45.159Z,25.21
2023-05-14T04:20:14.758Z,25.05
2023-05-14T04:22:43.720Z,24.99
2023-05-14T04:25:12.723Z,24.94
2023-05-14T04:27:41.845Z,24.87
2023-05-14T04:30:11.527Z,24.71
2023-05-14T04:32:43.492Z,24.64
2023-05-14T04:35:13.676Z,24.47
2023-05-14T04:37:42.685Z,24.39
2023-05-14T04:40:17.582Z,24.30
2023-05-14T04:42:46.927Z,24.19
2023-05-14T04:45:16.221Z,24.01
2023-05-14T04:47:46.014Z,23.97
2023-05-14T04:50:16.069Z,23.82
2023-05-14T04:52:45.173Z,23.77
2023-05-14T04:55:14.146Z,23.62
2023-05-14T04:57:43.325Z,23.49
2023-05-14T05:00:13.156Z,23.41
2023-05-14T05:02:42.331Z,23.49
2023-05-14T05:05:11.693Z,23.46
2023-05-14T05:07:40.756Z,23.38
2023-05-14T05:10:23.161Z,23.33
2023-05-14T05:12:52.698Z,23.25
2023-05-14T05:15:26.606Z,23.19
2023-05-14T05:17:56.485Z,23.09
2023-05-14T05:20:29.202Z,23.02
2023-05-14T05:22:58.348Z,22.92
2023-05-14T05:25:32.529Z,22.87
2023-05-14T05:28:03.970Z,22.81
2023-05-14T05:34:27.540Z,22.63
2023-05-14T05:37:23.528Z,22.47
2023-05-14T05:40:04.157Z,22.37
2023-05-14T05:43:23.353Z,22.26
2023-05-14T05:45:54.393Z,22.25
2023-05-14T05:48:51.893Z,22.22
2023-05-14T05:52:05.729Z,22.20
2023-05-14T05:55:13.202Z,22.04
2023-05-14T06:01:28.048Z,21.56
2023-05-14T06:03:57.715Z,21.65
2023-05-14T06:06:28.852Z,21.85
2023-05-14T06:08:59.894Z,21.81
2023-05-14T06:11:29.854Z,21.66
2023-05-14T06:13:58.802Z,21.54
2023-05-14T06:16:27.918Z,21.35
2023-05-14T06:18:57.479Z,21.37
2023-05-14T06:21:26.739Z,21.34
2023-05-14T06:23:56.004Z,21.14
2023-05-14T06:26:24.926Z,21.10
2023-05-14T06:28:54.072Z,21.22
2023-05-14T06:31:22.991Z,21.10
2023-05-14T06:33:52.091Z,20.95
2023-05-14T06:36:24.125Z,20.99
2023-05-14T06:38:53.848Z,20.92
2023-05-14T06:41:23.481Z,20.87
2023-05-14T06:43:52.578Z,20.74
2023-05-14T06:46:21.616Z,20.56
2023-05-14T06:48:53.373Z,20.42
2023-05-14T06:51:22.571Z,20.62
2023-05-14T06:53:54.684Z,20.62
2023-05-14T06:56:24.075Z,20.56
2023-05-14T06:58:54.184Z,20.45
2023-05-14T07:01:29.599Z,20.32
2023-05-14T07:03:58.830Z,20.26
2023-05-14T07:06:35.800Z,20.21
2023-05-14T07:09:16.542Z,20.22
2023-05-14T07:11:46.464Z,20.14
2023-05-14T07:14:18.197Z,20.02
2023-05-14T07:16:47.915Z,19.88
2023-05-14T07:19:17.449Z,19.67
2023-05-14T07:21:46.482Z,19.82
2023-05-14T07:24:15.490Z,19.76
2023-05-14T07:26:44.929Z,19.73
2023-05-14T07:29:14.009Z,19.38
2023-05-14T07:31:43.141Z,19.64
2023-05-14T07:34:13.524Z,19.10
2023-05-14T07:36:43.665Z,19.48
2023-05-14T07:39:12.655Z,19.61
2023-05-14T07:41:41.670Z,19.49
2023-05-14T07:44:10.812Z,19.26
2023-05-14T07:46:39.882Z,18.76
2023-05-14T07:49:08.999Z,18.69
2023-05-14T07:51:37.995Z,19.04
2023-05-14T07:54:11.686Z,18.74
2023-05-14T07:56:40.832Z,18.79
2023-05-14T07:59:09.821Z,18.82
2023-05-14T08:01:39.507Z,18.85
2023-05-14T08:04:08.977Z,18.90
2023-05-14T08:06:38.000Z,18.59
2023-05-14T08:09:07.636Z,18.91
2023-05-14T08:11:36.783Z,18.91
2023-05-14T08:14:05.600Z,18.60
2023-05-14T08:16:34.718Z,18.26
2023-05-14T08:19:03.953Z,18.06
2023-05-14T08:21:33.594Z,18.42
2023-05-14T08:24:02.720Z,18.34
2023-05-14T08:26:32.364Z,18.16
2023-05-14T08:29:01.354Z,18.18
2023-05-14T08:31:30.384Z,18.23
2023-05-14T08:33:59.383Z,17.93
2023-05-14T08:36:28.414Z,18.07
2023-05-14T08:38:57.349Z,18.05
2023-05-14T08:41:26.656Z,18.21
2023-05-14T08:44:08.944Z,17.24
2023-05-14T08:46:39.460Z,17.63
2023-05-14T08:49:31.506Z,17.95
2023-05-14T08:52:01.644Z,17.81
2023-05-14T08:54:33.355Z,17.76
2023-05-14T08:57:02.653Z,17.62
2023-05-14T08:59:31.687Z,17.57
2023-05-14T09:02:05.228Z,17.53
2023-05-14T09:04:37.847Z,17.54
2023-05-14T09:07:08.669Z,16.88
2023-05-14T09:09:38.666Z,16.87
2023-05-14T09:12:08.061Z,16.58
2023-05-14T09:14:37.818Z,16.71
2023-05-14T09:17:07.109Z,16.73
2023-05-14T09:19:36.141Z,16.76
2023-05-14T09:22:11.164Z,16.65
2023-05-14T09:24:40.669Z,16.83
2023-05-14T09:27:11.125Z,17.00
2023-05-14T09:29:40.083Z,17.12
2023-05-14T09:32:11.111Z,17.00
2023-05-14T09:34:41.406Z,17.02
2023-05-14T09:37:11.315Z,16.84
2023-05-14T09:39:40.351Z,16.68
2023-05-14T09:42:09.481Z,16.30
2023-05-14T09:44:38.955Z,16.33
2023-05-14T09:47:08.017Z,15.90
2023-05-14T09:49:36.940Z,16.30
2023-05-14T09:52:07.978Z,16.28
2023-05-14T09:54:38.889Z,15.74
2023-05-14T09:57:07.864Z,15.87
2023-05-14T09:59:36.940Z,15.91
2023-05-14T10:02:12.748Z,15.67
2023-05-14T10:04:42.046Z,15.78
2023-05-14T10:07:12.456Z,16.13
2023-05-14T10:09:44.229Z,15.77
2023-05-14T10:12:15.839Z,15.98
2023-05-14T10:14:54.100Z,15.85
2023-05-14T10:17:24.183Z,15.66
2023-05-14T10:19:58.164Z,15.59
2023-05-14T10:22:33.032Z,15.74
2023-05-14T10:25:03.745Z,15.62
2023-05-14T10:27:33.237Z,15.41
2023-05-14T10:30:06.779Z,15.32
2023-05-14T10:32:38.834Z,15.58
2023-05-14T10:35:23.513Z,15.35
2023-05-14T10:37:53.029Z,15.36
2023-05-14T10:40:25.813Z,15.46
2023-05-14T10:43:00.183Z,15.40
2023-05-14T10:45:29.246Z,15.23
2023-05-14T10:47:58.293Z,15.26
2023-05-14T10:50:28.013Z,15.73
2023-05-14T10:52:58.002Z,15.12
2023-05-14T10:55:27.140Z,15.24
2023-05-14T10:57:59.912Z,15.31
2023-05-14T11:00:28.985Z,15.59
2023-05-14T11:02:58.399Z,15.76
2023-05-14T11:05:28.611Z,15.17
2023-05-14T11:07:59.587Z,14.78
2023-05-14T11:10:30.938Z,14.80
2023-05-14T11:13:00.493Z,14.88
2023-05-14T11:15:29.936Z,14.79
2023-05-14T11:17:59.004Z,14.90
2023-05-14T11:20:27.960Z,14.69
2023-05-14T11:22:57.291Z,14.92
2023-05-14T11:25:26.834Z,15.06
2023-05-14T11:27:59.069Z,14.77
2023-05-14T11:30:28.435Z,14.79
2023-05-14T11:32:58.754Z,15.07
2023-05-14T11:35:29.129Z,15.23
2023-05-14T11:37:58.062Z,15.32
2023-05-14T11:40:27.033Z,15.09
2023-05-14T11:42:56.121Z,15.00
2023-05-14T11:45:30.589Z,15.28
2023-05-14T11:47:59.710Z,15.15
2023-05-14T11:50:28.910Z,14.99
2023-05-14T11:52:58.552Z,14.35
2023-05-14T11:55:27.619Z,14.55
2023-05-14T11:57:56.916Z,14.78
2023-05-14T12:00:27.876Z,14.77
2023-05-14T12:02:57.104Z,14.89
2023-05-14T12:05:26.671Z,14.33
2023-05-14T12:07:56.947Z,14.53
2023-05-14T12:10:26.519Z,14.52
2023-05-14T12:12:56.474Z,14.10
2023-05-14T12:15:27.578Z,14.43
2023-05-14T12:17:56.670Z,14.47
2023-05-14T12:20:26.995Z,13.96
2023-05-14T12:22:56.073Z,14.40
2023-05-14T12:25:27.043Z,14.47
2023-05-14T12:27:56.034Z,14.10
2023-05-14T12:30:24.910Z,14.27
2023-05-14T12:32:54.566Z,14.12
2023-05-14T12:35:23.860Z,14.50
2023-05-14T12:37:53.032Z,14.54
2023-05-14T12:40:22.098Z,14.74
2023-05-14T12:42:51.389Z,14.17
2023-05-14T12:45:20.330Z,14.52
2023-05-14T12:47:49.262Z,14.33
2023-05-14T12:50:18.293Z,14.26
2023-05-14T12:52:47.512Z,14.51
2023-05-14T12:55:16.389Z,14.54
2023-05-14T12:57:45.351Z,14.38
2023-05-14T13:00:15.245Z,14.53
2023-05-14T13:02:44.494Z,14.21
2023-05-14T13:05:14.012Z,14.21
2023-05-14T13:07:43.407Z,14.48
2023-05-14T13:10:12.660Z,14.26
2023-05-14T13:12:41.743Z,13.91
2023-05-14T13:15:11.569Z,14.27
2023-05-14T13:17:42.268Z,14.38
2023-05-14T13:20:11.815Z,14.45
2023-05-14T13:22:41.129Z,14.22
2023-05-14T13:25:10.630Z,14.29
2023-05-14T13:27:41.854Z,14.43
2023-05-14T13:30:11.314Z,14.63
2023-05-14T13:32:42.180Z,14.71
2023-05-14T13:35:11.545Z,14.48
2023-05-14T13:37:40.623Z,14.60
2023-05-14T13:40:10.436Z,14.35
2023-05-14T13:42:40.716Z,14.35
2023-05-14T13:45:10.809Z,14.10
2023-05-14T13:47:40.446Z,14.31
2023-05-14T13:50:09.990Z,14.39
2023-05-14T13:52:39.971Z,14.41
2023-05-14T13:55:09.462Z,14.23
2023-05-14T13:57:40.261Z,14.02
2023-05-14T14:00:10.348Z,13.92
2023-05-14T14:02:39.304Z,14.14
2023-05-14T14:05:08.707Z,14.46
2023-05-14T14:07:37.658Z,14.77
2023-05-14T14:10:07.175Z,14.94
2023-05-14T14:12:36.292Z,14.78
2023-05-14T14:15:06.556Z,14.65
2023-05-14T14:17:35.636Z,14.46
2023-05-14T14:20:06.744Z,14.02
2023-05-14T14:22:36.197Z,14.23
2023-05-14T14:25:05.653Z,14.33
2023-05-14T14:27:36.941Z,14.65
2023-05-14T14:30:16.321Z,14.38
2023-05-14T14:32:49.870Z,14.56
2023-05-14T14:35:20.628Z,14.98
2023-05-14T14:37:51.467Z,15.12
2023-05-14T14:40:21.030Z,14.84
2023-05-14T14:42:50.135Z,15.12
2023-05-14T14:45:19.283Z,15.26
2023-05-14T14:47:50.098Z,15.31
2023-05-14T14:50:19.588Z,15.33
2023-05-14T14:52:54.727Z,14.99
2023-05-14T14:59:43.443Z,15.78
2023-05-14T15:02:27.014Z,15.85
2023-05-14T15:05:01.919Z,15.76
2023-05-14T15:07:35.893Z,15.53
2023-05-14T15:10:08.649Z,15.51
2023-05-14T15:12:37.923Z,15.66
2023-05-14T15:15:07.752Z,16.00
2023-05-14T15:17:36.878Z,16.17
2023-05-14T15:20:08.124Z,16.18
2023-05-14T15:22:37.081Z,16.41
2023-05-14T15:25:06.731Z,16.64
2023-05-14T15:27:36.226Z,16.62
2023-05-14T15:30:05.682Z,16.56
2023-05-14T15:32:35.301Z,16.54
2023-05-14T15:35:04.508Z,16.76
2023-05-14T15:37:44.485Z,16.98
2023-05-14T15:40:14.174Z,17.10
2023-05-14T15:42:44.649Z,17.33
2023-05-14T15:45:14.628Z,17.34
2023-05-14T15:47:44.993Z,17.26
2023-05-14T15:50:14.030Z,16.96
2023-05-14T15:52:43.978Z,16.87
2023-05-14T15:55:13.064Z,16.62
2023-05-14T15:57:42.091Z,16.62
2023-05-14T16:00:11.880Z,16.75
2023-05-14T16:02:41.011Z,17.16
2023-05-14T16:05:10.424Z,17.11
2023-05-14T16:07:39.709Z,17.35
2023-05-14T16:10:09.161Z,17.51
2023-05-14T16:12:39.157Z,17.73
2023-05-14T16:15:09.021Z,17.94
2023-05-14T16:17:39.043Z,18.10
2023-05-14T16:20:08.845Z,18.27
2023-05-14T16:22:37.744Z,18.44
2023-05-14T16:25:07.528Z,18.60
2023-05-14T16:27:36.806Z,18.75
2023-05-14T16:30:06.097Z,18.85
2023-05-14T16:32:35.560Z,18.92
2023-05-14T16:35:04.666Z,19.08
2023-05-14T16:37:34.356Z,19.13
2023-05-14T16:40:03.736Z,19.28
2023-05-14T16:42:32.743Z,19.74
2023-05-14T16:45:01.728Z,19.24
2023-05-14T16:47:32.940Z,19.44
2023-05-14T16:50:01.982Z,19.60
2023-05-14T16:52:31.680Z,19.72
2023-05-14T16:55:00.868Z,19.83
2023-05-14T16:57:30.603Z,19.80
2023-05-14T16:59:59.795Z,20.10
2023-05-14T17:02:29.591Z,20.00
2023-05-14T17:04:59.020Z,20.34
2023-05-14T17:07:28.355Z,20.68
2023-05-14T17:09:58.866Z,20.66
2023-05-14T17:12:27.991Z,20.85
2023-05-14T17:14:56.864Z,21.17
2023-05-14T17:17:37.009Z,21.23
2023-05-14T17:20:07.047Z,21.34
2023-05-14T17:22:36.276Z,21.77
2023-05-14T17:25:08.203Z,22.14
2023-05-14T17:27:37.584Z,22.17
2023-05-14T17:30:10.011Z,22.44
2023-05-14T17:32:39.309Z,22.66
2023-05-14T17:35:10.441Z,22.80
2023-05-14T17:37:41.666Z,22.80
2023-05-14T17:40:11.536Z,22.98
2023-05-14T17:42:40.636Z,22.92
2023-05-14T17:45:14.054Z,23.04
2023-05-14T17:47:43.133Z,23.23
2023-05-14T17:50:12.255Z,23.25
2023-05-14T17:52:44.916Z,23.55
2023-05-14T17:55:13.986Z,24.09
2023-05-14T17:57:42.998Z,24.27
2023-05-14T18:00:12.914Z,24.37
2023-05-14T18:02:42.346Z,24.92
2023-05-14T18:05:11.495Z,25.10
2023-05-14T18:07:40.692Z,24.96
2023-05-14T18:10:10.230Z,25.11
2023-05-14T18:12:39.263Z,25.35
2023-05-14T18:15:09.130Z,25.52
2023-05-14T18:17:38.305Z,25.60
2023-05-14T18:20:08.453Z,25.79
2023-05-14T18:22:37.436Z,25.94
2023-05-14T18:25:07.906Z,26.12
2023-05-14T18:27:40.332Z,26.31
2023-05-14T18:30:10.564Z,26.39
2023-05-14T18:32:41.406Z,26.29
2023-05-14T18:35:11.595Z,26.36
2023-05-14T18:37:41.012Z,26.58
2023-05-14T18:40:11.193Z,26.78
2023-05-14T18:42:40.631Z,26.98
2023-05-14T18:45:17.445Z,26.99
2023-05-14T18:48:02.025Z,27.30
2023-05-14T18:51:14.183Z,27.46
2023-05-14T18:53:43.576Z,27.39
2023-05-14T18:56:12.513Z,27.79
2023-05-14T18:58:46.079Z,27.95
2023-05-14T19:01:16.741Z,27.99
2023-05-14T19:04:47.892Z,28.20
2023-05-14T19:06:59.351Z,28.15
2023-05-14T19:09:29.580Z,28.45
2023-05-14T19:12:06.337Z,28.73
2023-05-14T19:14:56.043Z,28.96
2023-05-14T19:17:26.987Z,28.94
2023-05-14T19:19:56.956Z,29.13
2023-05-14T19:22:30.735Z,28.95
2023-05-14T19:25:07.788Z,29.48
2023-05-14T19:27:58.941Z,29.25
2023-05-14T19:30:29.266Z,29.60
2023-05-14T19:33:00.187Z,29.50
2023-05-14T19:35:29.881Z,29.43
2023-05-14T19:38:01.557Z,29.61
2023-05-14T19:40:40.902Z,29.63
2023-05-14T19:43:12.514Z,29.49
2023-05-14T19:45:46.596Z,30.26
2023-05-14T19:49:29.316Z,30.08
2023-05-14T19:52:07.673Z,30.26
2023-05-14T19:54:36.992Z,30.58
2023-05-14T19:57:15.596Z,30.68
2023-05-14T19:59:48.094Z,30.93
2023-05-14T20:02:19.153Z,30.71
2023-05-14T20:05:13.200Z,30.48
2023-05-14T20:08:29.920Z,31.11
2023-05-14T20:11:14.757Z,31.02
2023-05-14T20:14:56.799Z,31.23
2023-05-14T20:17:55.547Z,30.98
2023-05-14T20:20:31.131Z,31.69
2023-05-14T20:23:11.435Z,31.93
2023-05-14T20:25:53.964Z,31.81
2023-05-14T20:28:26.295Z,31.19
2023-05-14T20:34:56.527Z,31.55
2023-05-14T20:38:28.732Z,31.56
2023-05-14T20:41:20.559Z,31.87
2023-05-14T20:44:28.258Z,31.72
2023-05-14T20:50:56.317Z,32.27
2023-05-14T20:53:38.252Z,31.90
2023-05-14T20:56:20.681Z,31.53
2023-05-14T20:59:47.746Z,32.59
2023-05-14T21:03:08.892Z,31.94
2023-05-14T21:05:44.529Z,32.26
2023-05-14T21:08:21.246Z,32.34
2023-05-14T21:11:03.957Z,32.14
2023-05-14T21:13:41.002Z,31.16
2023-05-14T21:16:44.254Z,31.53
2023-05-14T21:19:09.022Z,32.00
2023-05-14T21:21:41.492Z,31.47
2023-05-14T21:24:52.580Z,32.62
2023-05-14T21:27:33.123Z,32.38
2023-05-14T21:30:59.883Z,33.00
2023-05-14T21:33:42.472Z,31.41
2023-05-14T21:36:15.013Z,32.35
2023-05-14T21:38:51.332Z,32.83
2023-05-14T21:41:34.583Z,31.35
2023-05-14T21:44:08.992Z,32.16
2023-05-14T21:46:53.929Z,32.83
2023-05-14T21:49:37.720Z,31.70
2023-05-14T21:52:30.725Z,33.15
2023-05-14T21:55:09.718Z,32.95
2023-05-14T21:58:21.950Z,32.36
2023-05-14T22:00:38.592Z,33.58
2023-05-14T22:03:38.962Z,33.87
2023-05-14T22:06:41.095Z,32.41
2023-05-14T22:09:13.579Z,32.12
2023-05-14T22:12:22.427Z,32.64
2023-05-14T22:14:55.649Z,32.04
2023-05-14T22:17:31.676Z,32.42
2023-05-14T22:20:08.383Z,33.33
2023-05-14T22:22:43.194Z,32.07
2023-05-14T22:25:15.718Z,32.18
2023-05-14T22:27:51.884Z,32.36
2023-05-14T22:30:24.647Z,32.99
2023-05-14T22:32:59.238Z,33.78
2023-05-14T22:35:32.016Z,34.01
2023-05-14T22:38:20.751Z,34.40
2023-05-14T22:42:15.857Z,34.70
2023-05-14T22:44:58.918Z,34.29
2023-05-14T22:50:59.016Z,34.44
2023-05-14T22:53:39.266Z,34.55
2023-05-14T22:56:55.251Z,34.39
2023-05-14T22:59:26.660Z,34.91
2023-05-14T23:06:07.638Z,33.96
2023-05-14T23:09:05.169Z,33.17
2023-05-14T23:11:59.177Z,34.38
2023-05-14T23:14:45.565Z,32.62
2023-05-14T23:17:47.925Z,33.41
2023-05-14T23:20:45.156Z,33.48
2023-05-14T23:23:47.266Z,32.45
2023-05-14T23:26:31.006Z,32.54
2023-05-14T23:29:14.700Z,32.63
2023-05-14T23:31:45.153Z,33.58
2023-05-14T23:34:19.543Z,34.06
2023-05-14T23:37:01.173Z,32.80
2023-05-14T23:39:32.094Z,33.68
2023-05-14T23:42:07.677Z,33.87
2023-05-14T23:44:46.683Z,33.49
2023-05-14T23:57:45.559Z,33.99
